Time;durP1;ratioP1;P1;durP2;ratioP2;P2;SDS_P1;SDS_P2;PMS_P1;PMS_P2;Temp;Humidity;BMP_temperature;BMP_pressure;BME280_temperature;BME280_humidity;BME280_pressure;Samples;Min_cycle;Max_cycle;Signal;HPM_P1;HPM_P2
2022/11/08 00:02:17;;;;;;;;;;;11.80;99.90;;;;;;5003375;28;19921;-67
2022/11/08 00:04:43;;;;;;;;;;;11.80;99.90;;;;;;5032596;28;20282;-67
2022/11/08 00:15:22;;;;;;;;;;;11.90;99.90;;;;;;5031479;28;19921;-67
2022/11/08 00:17:47;;;;;;;;;;;11.90;99.90;;;;;;5032322;28;19948;-67
2022/11/08 00:20:13;;;;;;;;;;;11.90;99.90;;;;;;5032470;28;20365;-67
2022/11/08 00:22:38;;;;;;;;;;;11.90;99.90;;;;;;5029555;28;20386;-68
2022/11/08 00:25:04;;;;;;;;;;;11.90;99.90;;;;;;5013232;28;19928;-68
2022/11/08 00:27:30;;;;;;;;;;;11.90;99.90;;;;;;5032081;28;19983;-68
2022/11/08 00:29:55;;;;;;;;;;;11.90;99.90;;;;;;5014126;28;19932;-68
2022/11/08 00:32:22;;;;;;;;;;;12.00;99.90;;;;;;5027626;28;19931;-68
2022/11/08 00:34:48;;;;;;;;;;;11.90;99.90;;;;;;5010334;28;20371;-68
2022/11/08 00:37:14;;;;;;;;;;;12.00;99.90;;;;;;5016184;28;19925;-68
2022/11/08 00:39:40;;;;;;;;;;;12.00;99.90;;;;;;5011382;28;20003;-68
2022/11/08 00:42:05;;;;;;;;;;;11.90;99.90;;;;;;5031586;28;20027;-68
2022/11/08 00:44:31;;;;;;;;;;;11.90;99.90;;;;;;5013395;28;19960;-68
2022/11/08 00:46:56;;;;;;;;;;;11.90;99.90;;;;;;5010374;28;19932;-69
2022/11/08 00:49:22;;;;;;;;;;;11.90;99.90;;;;;;5026343;28;19921;-68
2022/11/08 00:51:47;;;;;;;;;;;11.90;99.90;;;;;;5013604;28;19929;-68
2022/11/08 00:54:14;;;;;;;;;;;11.80;99.90;;;;;;5031306;28;20309;-68
2022/11/08 00:56:40;;;;;;;;;;;11.80;99.90;;;;;;5007843;28;19956;-68
2022/11/08 00:59:05;;;;;;;;;;;11.80;99.90;;;;;;5013654;28;21097;-68
2022/11/08 01:01:31;;;;;;;;;;;11.70;99.90;;;;;;5031483;28;19972;-68
2022/11/08 01:03:57;;;;;;;;;;;11.70;99.90;;;;;;5031207;28;19947;-68
2022/11/08 01:06:23;;;;;;;;;;;11.70;99.90;;;;;;5007885;28;19930;-68
2022/11/08 01:08:48;;;;;;;;;;;11.70;99.90;;;;;;5013311;28;19931;-68
2022/11/08 01:11:15;;;;;;;;;;;11.70;99.90;;;;;;5031332;28;19921;-68
2022/11/08 01:13:41;;;;;;;;;;;11.70;99.90;;;;;;5017596;28;19922;-68
2022/11/08 01:16:07;;;;;;;;;;;11.60;99.90;;;;;;5013486;28;19932;-68
2022/11/08 01:18:33;;;;;;;;;;;11.60;99.90;;;;;;5031155;28;19921;-68
2022/11/08 01:20:58;;;;;;;;;;;11.50;99.90;;;;;;5013627;28;20051;-68
2022/11/08 01:23:24;;;;;;;;;;;11.40;99.90;;;;;;5030689;28;19961;-68
2022/11/08 01:25:49;;;;;;;;;;;11.40;99.90;;;;;;5007625;28;19925;-69
2022/11/08 01:28:15;;;;;;;;;;;11.30;99.90;;;;;;5012246;28;20333;-68
2022/11/08 01:30:42;;;;;;;;;;;11.30;99.90;;;;;;5012133;28;19968;-68
2022/11/08 01:33:07;;;;;;;;;;;11.30;99.90;;;;;;5014256;28;19928;-68
2022/11/08 01:35:33;;;;;;;;;;;11.30;99.90;;;;;;5015177;28;20057;-68
2022/11/08 01:37:59;;;;;;;;;;;11.30;99.90;;;;;;5018975;28;20370;-68
2022/11/08 01:40:25;;;;;;;;;;;11.20;99.90;;;;;;5012136;28;19929;-68
2022/11/08 01:42:51;;;;;;;;;;;11.20;99.90;;;;;;5033891;28;19921;-68
2022/11/08 01:45:36;;;;;;;;;;;11.20;99.90;;;;;;5016803;28;19931;-68
2022/11/08 01:48:01;;;;;;;;;;;11.20;99.90;;;;;;5017120;28;19932;-68
2022/11/08 01:50:27;;;;;;;;;;;11.20;99.90;;;;;;5034779;28;19921;-68
2022/11/08 01:52:54;;;;;;;;;;;11.20;99.90;;;;;;5005662;28;19929;-68
2022/11/08 01:55:25;;;;;;;;;;;11.20;99.90;;;;;;5032211;28;19960;-68
2022/11/08 01:57:56;;;;;;;;;;;11.30;99.90;;;;;;5015601;28;20411;-68
2022/11/08 02:00:21;;;;;;;;;;;11.20;99.90;;;;;;5022987;28;19968;-68
2022/11/08 02:02:58;;;;;;;;;;;11.30;99.90;;;;;;5016196;28;20011;-68
2022/11/08 02:05:23;;;;;;;;;;;11.30;99.90;;;;;;5021159;28;19921;-68
2022/11/08 02:07:50;;;;;;;;;;;11.30;99.90;;;;;;5033650;28;20283;-68
2022/11/08 02:10:16;;;;;;;;;;;11.20;99.90;;;;;;5033685;28;19925;-68
2022/11/08 02:12:41;;;;;;;;;;;11.20;99.90;;;;;;5032960;28;19928;-68
2022/11/08 02:15:07;;;;;;;;;;;11.10;99.90;;;;;;5019500;28;20469;-68
2022/11/08 02:17:33;;;;;;;;;;;11.00;99.90;;;;;;5033221;28;19925;-68
2022/11/08 02:19:58;;;;;;;;;;;11.00;99.90;;;;;;5031970;28;19921;-68
2022/11/08 02:22:46;;;;;;;;;;;10.90;99.90;;;;;;5030248;28;19930;-68
2022/11/08 02:25:12;;;;;;;;;;;10.90;99.90;;;;;;5019568;28;19921;-68
2022/11/08 02:27:37;;;;;;;;;;;10.90;99.90;;;;;;5013138;28;19952;-68
2022/11/08 02:30:03;;;;;;;;;;;10.90;99.90;;;;;;5033543;28;19921;-68
2022/11/08 02:32:38;;;;;;;;;;;10.90;99.90;;;;;;5032843;28;20031;-68
2022/11/08 02:35:05;;;;;;;;;;;10.80;99.90;;;;;;5032223;28;19921;-68
2022/11/08 02:37:31;;;;;;;;;;;10.80;99.90;;;;;;5011344;28;19929;-68
2022/11/08 02:39:56;;;;;;;;;;;10.80;99.90;;;;;;5029908;28;19929;-68
2022/11/08 02:42:22;;;;;;;;;;;10.70;99.90;;;;;;5028534;28;19921;-68
2022/11/08 02:44:47;;;;;;;;;;;10.70;99.90;;;;;;5031965;28;19921;-68
2022/11/08 02:47:13;;;;;;;;;;;10.60;99.90;;;;;;4997928;28;20051;-68
2022/11/08 02:49:38;;;;;;;;;;;10.60;99.90;;;;;;5032014;28;19925;-68
2022/11/08 02:52:04;;;;;;;;;;;10.60;99.90;;;;;;5026797;28;20004;-68
2022/11/08 02:54:29;;;;;;;;;;;10.50;99.90;;;;;;5015671;28;20330;-68
2022/11/08 02:56:55;;;;;;;;;;;10.50;99.90;;;;;;5033628;28;19932;-68
2022/11/08 02:59:20;;;;;;;;;;;10.50;99.90;;;;;;5014223;28;20531;-68
2022/11/08 03:01:46;;;;;;;;;;;10.40;99.90;;;;;;5033865;28;19921;-68
2022/11/08 03:04:11;;;;;;;;;;;10.40;99.90;;;;;;5013863;28;20007;-68
2022/11/08 03:06:37;;;;;;;;;;;10.40;99.90;;;;;;5029003;28;19925;-68
2022/11/08 03:09:03;;;;;;;;;;;10.40;99.90;;;;;;5030382;28;19929;-68
2022/11/08 03:11:28;;;;;;;;;;;10.30;99.90;;;;;;5032950;28;19932;-68
2022/11/08 03:13:54;;;;;;;;;;;10.30;99.90;;;;;;5015714;28;19929;-68
2022/11/08 03:16:19;;;;;;;;;;;10.30;99.90;;;;;;5031585;28;20298;-68
2022/11/08 03:18:45;;;;;;;;;;;10.30;99.90;;;;;;5032026;28;19928;-68
2022/11/08 03:21:10;;;;;;;;;;;10.30;99.90;;;;;;5032830;28;19986;-68
2022/11/08 03:23:36;;;;;;;;;;;10.30;99.90;;;;;;5015932;28;19932;-68
2022/11/08 03:26:02;;;;;;;;;;;10.30;99.90;;;;;;5014622;28;19921;-68
2022/11/08 03:28:28;;;;;;;;;;;10.30;99.90;;;;;;5029097;28;19999;-68
2022/11/08 03:30:53;;;;;;;;;;;10.30;99.90;;;;;;5014352;28;20363;-68
2022/11/08 03:33:19;;;;;;;;;;;10.30;99.90;;;;;;5031780;28;20298;-68
2022/11/08 03:35:46;;;;;;;;;;;10.30;99.90;;;;;;5013240;28;19936;-68
2022/11/08 03:38:11;;;;;;;;;;;10.30;99.90;;;;;;5030861;28;19929;-68
2022/11/08 03:40:37;;;;;;;;;;;10.30;99.90;;;;;;5030228;28;19932;-68
2022/11/08 03:43:02;;;;;;;;;;;10.30;99.90;;;;;;5013292;28;20337;-68
2022/11/08 03:45:28;;;;;;;;;;;10.30;99.90;;;;;;5031469;28;20008;-68
2022/11/08 03:47:53;;;;;;;;;;;10.30;99.90;;;;;;5013809;28;20389;-68
2022/11/08 03:50:18;;;;;;;;;;;10.30;99.90;;;;;;5014405;28;19979;-68
2022/11/08 03:52:45;;;;;;;;;;;10.20;99.90;;;;;;5043140;23;20543;-68
2022/11/08 03:55:11;;;;;;;;;;;10.20;99.90;;;;;;5040714;28;19994;-68
2022/11/08 03:57:37;;;;;;;;;;;10.20;99.90;;;;;;5043092;28;20398;-68
2022/11/08 04:00:03;;;;;;;;;;;10.20;99.90;;;;;;5032862;28;20404;-68
2022/11/08 04:02:29;;;;;;;;;;;10.10;99.90;;;;;;5033101;28;19925;-68
2022/11/08 04:04:54;;;;;;;;;;;10.10;99.90;;;;;;5032864;28;20313;-68
2022/11/08 04:07:20;;;;;;;;;;;10.00;99.90;;;;;;5051159;28;19921;-68
2022/11/08 04:09:45;;;;;;;;;;;10.00;99.90;;;;;;5039555;28;19931;-68
2022/11/08 04:15:13;;;;;;;;;;;9.90;99.90;;;;;;5033525;28;19921;-68
2022/11/08 04:23:07;;;;;;;;;;;9.80;99.90;;;;;;5033210;28;19924;-68
2022/11/08 04:25:32;;;;;;;;;;;9.80;99.90;;;;;;5033941;28;19920;-68
2022/11/08 04:27:58;;;;;;;;;;;9.80;99.90;;;;;;5050569;28;19965;-68
2022/11/08 04:30:23;;;;;;;;;;;9.70;99.90;;;;;;5051035;28;20277;-68
2022/11/08 04:32:49;;;;;;;;;;;9.70;99.90;;;;;;5051295;28;20019;-68
2022/11/08 04:35:14;;;;;;;;;;;9.70;99.90;;;;;;5051188;28;19925;-68
2022/11/08 04:37:40;;;;;;;;;;;9.70;99.90;;;;;;5036394;28;20055;-68
2022/11/08 04:40:05;;;;;;;;;;;9.70;99.90;;;;;;5050419;28;19920;-68
2022/11/08 04:42:31;;;;;;;;;;;9.70;99.90;;;;;;5049059;28;19927;-68
2022/11/08 04:44:56;;;;;;;;;;;9.70;99.90;;;;;;5016029;28;19931;-68
2022/11/08 04:47:22;;;;;;;;;;;9.70;99.90;;;;;;5011350;28;20366;-68
2022/11/08 04:49:47;;;;;;;;;;;9.70;99.90;;;;;;5025275;28;19924;-68
2022/11/08 04:52:14;;;;;;;;;;;9.70;99.90;;;;;;5048722;28;20004;-68
2022/11/08 04:54:43;;;;;;;;;;;9.80;99.90;;;;;;5010339;28;19928;-68
2022/11/08 04:57:09;;;;;;;;;;;9.80;99.90;;;;;;5051436;28;19979;-68
2022/11/08 04:59:35;;;;;;;;;;;9.90;99.90;;;;;;5051589;28;19928;-68
2022/11/08 05:02:00;;;;;;;;;;;9.90;99.90;;;;;;5051518;28;19925;-68
2022/11/08 05:04:26;;;;;;;;;;;9.80;99.90;;;;;;5033707;28;20370;-68
2022/11/08 05:06:51;;;;;;;;;;;9.80;99.90;;;;;;5051687;28;19968;-68
2022/11/08 05:09:17;;;;;;;;;;;9.80;99.90;;;;;;5051230;28;19982;-68
2022/11/08 05:11:42;;;;;;;;;;;9.70;99.90;;;;;;5033579;28;19956;-68
2022/11/08 05:14:08;;;;;;;;;;;9.70;99.90;;;;;;5055230;28;20266;-68
2022/11/08 05:16:33;;;;;;;;;;;9.70;99.90;;;;;;5028756;28;19929;-68
2022/11/08 05:18:59;;;;;;;;;;;9.70;99.90;;;;;;5037335;28;19925;-68
2022/11/08 05:24:10;;;;;;;;;;;9.60;99.90;;;;;;5054119;28;20382;-68
2022/11/08 05:26:36;;;;;;;;;;;9.60;99.90;;;;;;5046535;28;19921;-68
2022/11/08 05:29:02;;;;;;;;;;;9.50;99.90;;;;;;5036723;28;20303;-68
2022/11/08 05:31:27;;;;;;;;;;;9.50;99.90;;;;;;5037179;28;20370;-68
2022/11/08 05:33:53;;;;;;;;;;;9.50;99.90;;;;;;5036882;28;19928;-68
2022/11/08 05:36:18;;;;;;;;;;;9.50;99.90;;;;;;5055303;28;19921;-68
2022/11/08 05:38:44;;;;;;;;;;;9.50;99.90;;;;;;5037182;28;19964;-68
2022/11/08 05:41:17;;;;;;;;;;;9.50;99.90;;;;;;5055055;28;19994;-68
2022/11/08 05:43:46;;;;;;;;;;;9.50;99.90;;;;;;5042313;28;20277;-68
2022/11/08 05:46:12;;;;;;;;;;;9.50;99.90;;;;;;5036357;28;19924;-68
2022/11/08 05:48:38;;;;;;;;;;;9.50;99.90;;;;;;5036888;28;19925;-68
2022/11/08 05:51:04;;;;;;;;;;;9.50;99.90;;;;;;5054933;28;19943;-68
2022/11/08 05:53:29;;;;;;;;;;;9.50;99.90;;;;;;5054220;28;20274;-68
2022/11/08 05:55:58;;;;;;;;;;;9.50;99.90;;;;;;5036715;28;19925;-68
2022/11/08 05:58:24;;;;;;;;;;;9.50;99.90;;;;;;5036567;28;20296;-68
2022/11/08 06:00:49;;;;;;;;;;;9.40;99.90;;;;;;5036734;28;19931;-68
2022/11/08 06:03:15;;;;;;;;;;;9.40;99.90;;;;;;5035678;28;19925;-68
2022/11/08 06:05:40;;;;;;;;;;;9.40;99.90;;;;;;5036245;28;19920;-68
2022/11/08 06:08:06;;;;;;;;;;;9.40;99.90;;;;;;5035569;28;19920;-68
2022/11/08 06:10:31;;;;;;;;;;;9.40;99.90;;;;;;5054326;28;20413;-68
2022/11/08 06:12:58;;;;;;;;;;;9.40;99.90;;;;;;5054478;28;20290;-68
2022/11/08 06:15:24;;;;;;;;;;;9.40;99.90;;;;;;5054311;28;19979;-68
2022/11/08 06:17:49;;;;;;;;;;;9.40;99.90;;;;;;5049565;28;20311;-68
2022/11/08 06:20:15;;;;;;;;;;;9.50;99.90;;;;;;5053904;28;19927;-68
2022/11/08 06:22:42;;;;;;;;;;;9.40;99.90;;;;;;5036090;28;19927;-68
2022/11/08 06:25:08;;;;;;;;;;;9.40;99.90;;;;;;5019258;28;20012;-68
2022/11/08 06:27:35;;;;;;;;;;;9.40;99.90;;;;;;5054100;28;20376;-68
2022/11/08 06:30:00;;;;;;;;;;;9.40;99.90;;;;;;5039298;28;19982;-68
2022/11/08 06:32:26;;;;;;;;;;;9.40;99.90;;;;;;5042891;28;20002;-68
2022/11/08 06:34:51;;;;;;;;;;;9.40;99.90;;;;;;5035749;28;20386;-68
2022/11/08 06:37:17;;;;;;;;;;;9.40;99.90;;;;;;5053668;28;19979;-68
2022/11/08 06:39:43;;;;;;;;;;;9.40;99.90;;;;;;5053187;28;20007;-68
2022/11/08 06:42:08;;;;;;;;;;;9.40;99.90;;;;;;5053736;28;19925;-68
2022/11/08 06:44:34;;;;;;;;;;;9.50;99.90;;;;;;5033956;28;19931;-68
2022/11/08 06:46:59;;;;;;;;;;;9.50;99.90;;;;;;5044877;28;19996;-68
2022/11/08 06:49:25;;;;;;;;;;;9.50;99.90;;;;;;5035479;28;19925;-68
2022/11/08 06:51:51;;;;;;;;;;;9.60;99.90;;;;;;5034772;28;19971;-68
2022/11/08 06:54:16;;;;;;;;;;;9.60;99.90;;;;;;5052586;28;20011;-68
2022/11/08 06:56:42;;;;;;;;;;;9.60;99.90;;;;;;5053363;28;19920;-68
2022/11/08 06:59:08;;;;;;;;;;;9.70;99.90;;;;;;5035453;28;19924;-68
2022/11/08 07:01:33;;;;;;;;;;;9.70;99.90;;;;;;5053200;28;19925;-68
2022/11/08 07:03:59;;;;;;;;;;;9.70;99.90;;;;;;5053308;28;20267;-68
2022/11/08 07:06:24;;;;;;;;;;;9.80;99.90;;;;;;5051835;28;19920;-68
2022/11/08 07:08:50;;;;;;;;;;;9.80;99.90;;;;;;5047549;28;20274;-68
2022/11/08 07:11:15;;;;;;;;;;;9.80;99.90;;;;;;5052954;28;19921;-68
2022/11/08 07:13:41;;;;;;;;;;;9.90;99.90;;;;;;5039827;28;20387;-68
2022/11/08 07:16:06;;;;;;;;;;;9.90;99.90;;;;;;5052721;28;19928;-68
2022/11/08 07:18:32;;;;;;;;;;;9.90;99.90;;;;;;5052466;28;19924;-66
2022/11/08 07:21:01;;;;;;;;;;;10.00;99.90;;;;;;5052734;28;19925;-68
2022/11/08 07:23:27;;;;;;;;;;;10.00;99.90;;;;;;5039989;28;19932;-67
2022/11/08 07:25:52;;;;;;;;;;;10.00;99.90;;;;;;5034746;28;20386;-67
2022/11/08 07:28:18;;;;;;;;;;;10.10;99.90;;;;;;5052522;28;19920;-67
2022/11/08 07:30:44;;;;;;;;;;;10.10;99.90;;;;;;5052713;28;20015;-67
2022/11/08 07:33:10;;;;;;;;;;;10.10;99.90;;;;;;5034756;28;19956;-67
2022/11/08 07:35:36;;;;;;;;;;;10.20;99.90;;;;;;5051496;28;19962;-68
2022/11/08 07:38:01;;;;;;;;;;;10.20;99.90;;;;;;5027175;28;19921;-68
2022/11/08 07:40:27;;;;;;;;;;;10.20;99.90;;;;;;5018035;28;19924;-68
2022/11/08 07:42:55;;;;;;;;;;;10.30;99.90;;;;;;5051935;28;19924;-68
2022/11/08 07:45:21;;;;;;;;;;;10.30;99.90;;;;;;5050121;28;19924;-68
2022/11/08 07:47:46;;;;;;;;;;;10.40;99.90;;;;;;5050626;28;19971;-68
2022/11/08 07:50:12;;;;;;;;;;;10.40;99.90;;;;;;5034032;28;19956;-68
2022/11/08 07:52:37;;;;;;;;;;;10.50;99.90;;;;;;5050472;28;19921;-68
2022/11/08 07:55:03;;;;;;;;;;;10.50;99.90;;;;;;5051612;28;19932;-69
2022/11/08 07:57:28;;;;;;;;;;;10.60;99.90;;;;;;5033336;28;19960;-69
2022/11/08 07:59:54;;;;;;;;;;;10.60;99.90;;;;;;5033319;28;19928;-68
2022/11/08 08:02:19;;;;;;;;;;;10.60;99.90;;;;;;5050958;28;19974;-68
2022/11/08 08:04:45;;;;;;;;;;;10.70;99.90;;;;;;5044610;28;20349;-68
2022/11/08 08:07:11;;;;;;;;;;;10.70;99.90;;;;;;5022009;28;20055;-68
2022/11/08 08:09:36;;;;;;;;;;;10.80;99.90;;;;;;5045001;28;19932;-68
2022/11/08 08:12:02;;;;;;;;;;;10.90;99.90;;;;;;5033836;28;19925;-68
2022/11/08 08:14:28;;;;;;;;;;;10.90;99.90;;;;;;5045622;28;19921;-68
2022/11/08 08:16:54;;;;;;;;;;;11.00;99.90;;;;;;5051873;28;19925;-69
2022/11/08 08:19:19;;;;;;;;;;;11.20;99.90;;;;;;5032213;28;19931;-68
2022/11/08 08:21:44;;;;;;;;;;;11.30;99.90;;;;;;5018712;28;20011;-68
2022/11/08 08:24:10;;;;;;;;;;;11.40;99.90;;;;;;5046777;28;19932;-68
2022/11/08 08:26:36;;;;;;;;;;;11.40;99.90;;;;;;5032553;28;19921;-68
2022/11/08 08:29:01;;;;;;;;;;;11.50;99.90;;;;;;5033400;28;20020;-68
2022/11/08 08:31:27;;;;;;;;;;;11.50;99.90;;;;;;5051028;28;20286;-68
2022/11/08 08:33:52;;;;;;;;;;;11.60;99.90;;;;;;5051093;28;20036;-68
2022/11/08 08:36:17;;;;;;;;;;;11.60;99.90;;;;;;5051235;28;19924;-68
2022/11/08 08:38:43;;;;;;;;;;;11.70;99.90;;;;;;5035041;28;19955;-68
2022/11/08 08:41:09;;;;;;;;;;;11.70;99.90;;;;;;5030901;28;20368;-68
2022/11/08 08:43:34;;;;;;;;;;;11.70;99.90;;;;;;5035363;28;19967;-68
2022/11/08 08:46:00;;;;;;;;;;;11.80;99.90;;;;;;5024536;28;20370;-68
2022/11/08 08:48:26;;;;;;;;;;;11.90;99.90;;;;;;5032250;28;20020;-68
2022/11/08 08:50:51;;;;;;;;;;;11.90;99.90;;;;;;5033402;28;20012;-68
2022/11/08 08:53:17;;;;;;;;;;;11.90;99.90;;;;;;5016623;28;20297;-68
2022/11/08 08:55:42;;;;;;;;;;;11.90;99.90;;;;;;5051359;28;19929;-68
2022/11/08 08:58:09;;;;;;;;;;;12.00;99.90;;;;;;5033421;28;19931;-68
2022/11/08 09:00:35;;;;;;;;;;;12.00;99.90;;;;;;5051241;28;19948;-68
2022/11/08 09:03:04;;;;;;;;;;;12.10;99.90;;;;;;5033194;28;19971;-68
2022/11/08 09:05:30;;;;;;;;;;;12.10;99.90;;;;;;5033339;28;19928;-68
2022/11/08 09:07:56;;;;;;;;;;;12.20;99.90;;;;;;5050915;28;19921;-68
2022/11/08 09:10:23;;;;;;;;;;;12.20;99.90;;;;;;5033540;28;19931;-68
2022/11/08 09:12:49;;;;;;;;;;;12.20;99.90;;;;;;5051078;28;19936;-68
2022/11/08 09:15:14;;;;;;;;;;;12.30;99.90;;;;;;5033630;28;19921;-68
2022/11/08 09:17:40;;;;;;;;;;;12.40;99.90;;;;;;5050518;28;20390;-69
2022/11/08 09:20:05;;;;;;;;;;;12.40;99.90;;;;;;5049932;28;20011;-68
2022/11/08 09:22:32;;;;;;;;;;;12.50;99.90;;;;;;5050310;28;20267;-68
2022/11/08 09:24:58;;;;;;;;;;;12.60;99.90;;;;;;5050907;28;20000;-68
2022/11/08 09:27:23;;;;;;;;;;;12.60;99.90;;;;;;5031771;28;20447;-68
2022/11/08 09:29:49;;;;;;;;;;;12.70;99.90;;;;;;5032850;28;19925;-69
2022/11/08 09:32:14;;;;;;;;;;;12.80;99.90;;;;;;5031824;28;19932;-69
2022/11/08 09:34:40;;;;;;;;;;;12.80;99.90;;;;;;5049942;28;19947;-69
2022/11/08 09:37:05;;;;;;;;;;;12.90;99.90;;;;;;5037545;28;19924;-69
2022/11/08 09:39:31;;;;;;;;;;;13.00;99.90;;;;;;5035532;28;20034;-68
2022/11/08 09:42:09;;;;;;;;;;;13.00;99.90;;;;;;5046952;28;19944;-67
2022/11/08 09:44:35;;;;;;;;;;;13.10;99.90;;;;;;5043836;28;19924;-67
2022/11/08 09:47:03;;;;;;;;;;;13.20;99.90;;;;;;5034063;28;19931;-67
2022/11/08 09:49:39;;;;;;;;;;;13.20;99.90;;;;;;5042995;28;20386;-67
2022/11/08 09:52:04;;;;;;;;;;;13.30;99.90;;;;;;5032705;28;19920;-67
2022/11/08 09:54:33;;;;;;;;;;;13.30;99.90;;;;;;5049037;28;20240;-67
2022/11/08 09:57:03;;;;;;;;;;;13.30;99.90;;;;;;5049652;28;19927;-67
2022/11/08 09:59:46;;;;;;;;;;;13.40;99.90;;;;;;5046862;28;19925;-67
2022/11/08 10:02:20;;;;;;;;;;;13.40;99.90;;;;;;5036956;28;19921;-67
2022/11/08 10:05:07;;;;;;;;;;;13.40;99.90;;;;;;5054308;28;20301;-67
2022/11/08 10:07:41;;;;;;;;;;;13.50;99.90;;;;;;5038351;28;20336;-67
2022/11/08 10:10:26;;;;;;;;;;;13.50;99.90;;;;;;5032748;28;19929;-67
2022/11/08 10:13:01;;;;;;;;;;;13.50;99.90;;;;;;5041724;28;20410;-67
2022/11/08 10:15:26;;;;;;;;;;;13.60;99.90;;;;;;5034944;28;20548;-67
2022/11/08 10:17:57;;;;;;;;;;;13.60;99.90;;;;;;5048418;28;19929;-67
2022/11/08 10:20:28;;;;;;;;;;;13.70;99.90;;;;;;5051227;28;20398;-67
2022/11/08 10:23:13;;;;;;;;;;;13.60;99.90;;;;;;5053402;28;19963;-67
2022/11/08 10:25:44;;;;;;;;;;;13.70;99.90;;;;;;5052207;28;19921;-67
2022/11/08 10:28:13;;;;;;;;;;;13.70;99.90;;;;;;5019321;28;19930;-67
2022/11/08 10:30:39;;;;;;;;;;;13.80;99.90;;;;;;5054655;28;20297;-66
2022/11/08 10:33:14;;;;;;;;;;;13.80;99.90;;;;;;5054841;28;19925;-66
2022/11/08 10:35:43;;;;;;;;;;;13.80;99.90;;;;;;5035529;28;20351;-66
2022/11/08 10:38:17;;;;;;;;;;;13.90;99.90;;;;;;5053310;28;19921;-67
2022/11/08 10:40:56;;;;;;;;;;;13.90;99.90;;;;;;5036393;28;20000;-66
2022/11/08 10:43:36;;;;;;;;;;;13.90;99.90;;;;;;5033842;28;19925;-66
2022/11/08 10:46:03;;;;;;;;;;;14.00;99.90;;;;;;5054040;28;19921;-67
2022/11/08 10:48:31;;;;;;;;;;;14.10;99.90;;;;;;5053234;28;20019;-67
2022/11/08 10:50:57;;;;;;;;;;;14.10;99.90;;;;;;5052640;28;19974;-67
2022/11/08 10:53:27;;;;;;;;;;;14.10;99.90;;;;;;5039846;28;19921;-67
2022/11/08 10:56:00;;;;;;;;;;;14.00;99.90;;;;;;5046508;28;20448;-66
2022/11/08 10:58:36;;;;;;;;;;;14.00;99.90;;;;;;5046889;28;20370;-67
2022/11/08 11:01:11;;;;;;;;;;;13.90;99.90;;;;;;5053756;28;19960;-66
2022/11/08 11:03:37;;;;;;;;;;;13.90;99.90;;;;;;5054208;28;19925;-67
2022/11/08 11:06:04;;;;;;;;;;;13.80;99.90;;;;;;5054165;28;19928;-67
2022/11/08 11:08:30;;;;;;;;;;;13.70;99.90;;;;;;5033461;28;20382;-67
2022/11/08 11:11:11;;;;;;;;;;;13.60;99.90;;;;;;5053759;28;19928;-67
2022/11/08 11:13:37;;;;;;;;;;;13.60;99.90;;;;;;5049158;28;20397;-67
2022/11/08 11:16:03;;;;;;;;;;;13.60;99.90;;;;;;5053898;28;19921;-66
2022/11/08 11:18:28;;;;;;;;;;;13.60;99.90;;;;;;5033258;28;19927;-67
2022/11/08 11:20:56;;;;;;;;;;;13.50;99.90;;;;;;5031736;28;19928;-67
2022/11/08 11:23:22;;;;;;;;;;;13.50;99.90;;;;;;5035188;28;19920;-67
2022/11/08 11:25:51;;;;;;;;;;;13.60;99.90;;;;;;5053048;28;20281;-67
2022/11/08 11:28:16;;;;;;;;;;;13.70;99.90;;;;;;5048644;28;19936;-67
2022/11/08 11:30:46;;;;;;;;;;;13.80;99.90;;;;;;5024266;28;19924;-67
2022/11/08 11:33:37;;;;;;;;;;;13.90;99.90;;;;;;5048223;28;19974;-67
2022/11/08 11:36:08;;;;;;;;;;;14.00;99.90;;;;;;5045125;28;19983;-67
2022/11/08 11:38:37;;;;;;;;;;;14.10;99.90;;;;;;5049087;28;19928;-67
2022/11/08 11:41:05;;;;;;;;;;;14.20;99.90;;;;;;5053670;28;20296;-67
2022/11/08 11:43:35;;;;;;;;;;;14.30;99.90;;;;;;5053419;28;20000;-67
2022/11/08 11:46:10;;;;;;;;;;;14.30;99.90;;;;;;5035131;28;20289;-67
2022/11/08 11:48:40;;;;;;;;;;;14.30;99.90;;;;;;5011349;28;20396;-67
2022/11/08 11:51:07;;;;;;;;;;;14.40;99.90;;;;;;5050565;28;19928;-67
2022/11/08 11:53:35;;;;;;;;;;;14.40;99.90;;;;;;5037536;28;19956;-67
2022/11/08 11:56:09;;;;;;;;;;;14.40;99.90;;;;;;5034897;28;19925;-67
2022/11/08 11:58:42;;;;;;;;;;;14.40;99.90;;;;;;5052011;28;19920;-67
2022/11/08 12:01:11;;;;;;;;;;;14.50;99.90;;;;;;5051500;28;19946;-67
2022/11/08 12:03:39;;;;;;;;;;;14.60;99.90;;;;;;5053255;28;19928;-67
2022/11/08 12:06:13;;;;;;;;;;;14.60;99.90;;;;;;5052844;28;20505;-67
2022/11/08 12:08:39;;;;;;;;;;;;;;;;;;5018453;28;20512;-67
2022/11/08 12:11:30;;;;;;;;;;;14.60;99.90;;;;;;5051072;28;19928;-67
2022/11/08 12:13:58;;;;;;;;;;;14.60;99.90;;;;;;5052357;28;20416;-67
2022/11/08 12:16:43;;;;;;;;;;;14.70;99.90;;;;;;5009149;28;20314;-67
2022/11/08 12:19:27;;;;;;;;;;;14.70;99.90;;;;;;5044395;28;20010;-66
2022/11/08 12:22:14;;;;;;;;;;;14.70;99.90;;;;;;5051512;28;19931;-66
2022/11/08 12:24:49;;;;;;;;;;;14.70;99.90;;;;;;5051948;28;20019;-67
2022/11/08 12:27:37;;;;;;;;;;;14.70;99.90;;;;;;5051889;28;19920;-66
2022/11/08 12:30:02;;;;;;;;;;;14.70;99.90;;;;;;5016901;28;20340;-66
2022/11/08 12:32:40;;;;;;;;;;;14.70;99.90;;;;;;5040455;28;20015;-66
2022/11/08 12:35:26;;;;;;;;;;;14.70;99.90;;;;;;5050033;28;19932;-66
2022/11/08 12:37:57;;;;;;;;;;;14.70;99.90;;;;;;5052007;28;19928;-67
2022/11/08 12:40:32;;;;;;;;;;;14.60;99.90;;;;;;5042695;28;20243;-67
2022/11/08 12:43:16;;;;;;;;;;;14.60;99.90;;;;;;5051094;28;19968;-66
2022/11/08 12:45:41;;;;;;;;;;;14.60;99.90;;;;;;5051918;28;19963;-66
2022/11/08 12:48:25;;;;;;;;;;;14.60;99.90;;;;;;5043047;28;19971;-67
2022/11/08 12:51:01;;;;;;;;;;;14.60;99.90;;;;;;5050073;28;20523;-67
2022/11/08 12:53:43;;;;;;;;;;;14.60;99.90;;;;;;5025854;28;19920;-67
2022/11/08 12:56:13;;;;;;;;;;;14.60;99.90;;;;;;5052090;28;19956;-67
2022/11/08 12:58:44;;;;;;;;;;;14.60;99.90;;;;;;5046163;28;20033;-67
2022/11/08 13:01:11;;;;;;;;;;;14.60;99.90;;;;;;5001967;28;19968;-67
2022/11/08 13:03:45;;;;;;;;;;;14.60;99.90;;;;;;5052019;28;19921;-66
2022/11/08 13:06:16;;;;;;;;;;;14.70;99.90;;;;;;5051864;28;19943;-67
2022/11/08 13:09:01;;;;;;;;;;;14.70;99.90;;;;;;5051668;28;19931;-66
2022/11/08 13:11:46;;;;;;;;;;;14.80;99.90;;;;;;5033838;28;20479;-66
2022/11/08 13:14:17;;;;;;;;;;;14.70;99.90;;;;;;5017795;28;19921;-67
2022/11/08 13:16:43;;;;;;;;;;;14.60;99.90;;;;;;5051650;28;19921;-67
2022/11/08 13:19:47;;;;;;;;;;;14.60;99.90;;;;;;5047132;28;19921;-67
2022/11/08 13:22:28;;;;;;;;;;;14.70;99.90;;;;;;4992313;28;20460;-67
2022/11/08 13:24:57;;;;;;;;;;;14.60;99.90;;;;;;5005273;28;19921;-67
2022/11/08 13:27:28;;;;;;;;;;;14.60;99.90;;;;;;5030671;28;20397;-67
2022/11/08 13:29:55;;;;;;;;;;;14.60;99.90;;;;;;5033757;28;20378;-67
2022/11/08 13:32:29;;;;;;;;;;;14.60;99.90;;;;;;5051439;28;19920;-67
2022/11/08 13:34:58;;;;;;;;;;;14.50;99.90;;;;;;5035831;28;19921;-67
2022/11/08 13:37:23;;;;;;;;;;;14.40;99.90;;;;;;5047569;28;20008;-67
2022/11/08 13:39:49;;;;;;;;;;;14.40;99.90;;;;;;5054180;28;20011;-67
2022/11/08 13:42:14;;;;;;;;;;;14.30;99.90;;;;;;5037760;28;19920;-67
2022/11/08 13:44:57;;;;;;;;;;;14.30;99.90;;;;;;5021960;28;19928;-67
2022/11/08 13:47:31;;;;;;;;;;;14.30;99.90;;;;;;5052733;28;20363;-67
2022/11/08 13:50:15;;;;;;;;;;;14.20;99.90;;;;;;5033694;28;20016;-67
2022/11/08 13:52:46;;;;;;;;;;;14.10;99.90;;;;;;5040354;28;19920;-67
2022/11/08 13:55:30;;;;;;;;;;;14.10;99.90;;;;;;5030765;28;19925;-67
2022/11/08 13:57:58;;;;;;;;;;;14.00;99.90;;;;;;5051052;28;19995;-67
2022/11/08 14:00:52;;;;;;;;;;;13.90;99.90;;;;;;5048294;28;19921;-67
2022/11/08 14:03:33;;;;;;;;;;;13.90;99.90;;;;;;5013435;28;19924;-67
2022/11/08 14:06:04;;;;;;;;;;;13.90;99.90;;;;;;5050940;28;19932;-67
2022/11/08 14:08:36;;;;;;;;;;;13.80;99.90;;;;;;5049605;28;20294;-68
2022/11/08 14:11:13;;;;;;;;;;;13.80;99.90;;;;;;5032862;28;20403;-68
2022/11/08 14:14:02;;;;;;;;;;;13.80;99.90;;;;;;5049094;28;20302;-68
2022/11/08 14:16:28;;;;;;;;;;;13.80;99.90;;;;;;5048300;28;19929;-68
2022/11/08 14:19:04;;;;;;;;;;;13.80;99.90;;;;;;5052536;28;20403;-68
2022/11/08 14:21:29;;;;;;;;;;;13.70;99.90;;;;;;5050019;28;19927;-68
2022/11/08 14:23:55;;;;;;;;;;;13.70;99.90;;;;;;5014195;28;22041;-68
2022/11/08 14:26:22;;;;;;;;;;;13.70;99.90;;;;;;5025120;28;19925;-68
2022/11/08 14:28:49;;;;;;;;;;;13.70;99.90;;;;;;5040273;28;20306;-68
2022/11/08 14:31:24;;;;;;;;;;;13.70;99.90;;;;;;5034319;28;20279;-68
2022/11/08 14:33:49;;;;;;;;;;;13.70;99.90;;;;;;5047504;28;20419;-68
2022/11/08 14:36:16;;;;;;;;;;;13.60;99.90;;;;;;5043550;28;19964;-68
2022/11/08 14:39:02;;;;;;;;;;;13.60;99.90;;;;;;5031914;28;19921;-68
2022/11/08 14:41:28;;;;;;;;;;;13.60;99.90;;;;;;5034706;28;20365;-68
2022/11/08 14:43:55;;;;;;;;;;;13.60;99.90;;;;;;5024567;28;20008;-68
2022/11/08 14:46:27;;;;;;;;;;;13.60;99.90;;;;;;5049854;28;19936;-68
2022/11/08 14:48:53;;;;;;;;;;;13.60;99.90;;;;;;5029274;28;19932;-67